createdAt,value
2023-02-23T00:01:57.509Z,98885.53
2023-02-23T00:04:25.306Z,98876.78
2023-02-23T00:06:53.489Z,98881.34
2023-02-23T00:09:24.698Z,98876.06
2023-02-23T00:11:54.586Z,98872.63
2023-02-23T00:14:27.482Z,98870.31
2023-02-23T00:16:56.474Z,98884.19
2023-02-23T00:19:24.981Z,98871.06
2023-02-23T00:21:53.841Z,98878.34
2023-02-23T00:24:22.095Z,98873.13
2023-02-23T00:26:51.582Z,98877.44
2023-02-23T00:29:21.995Z,98878.34
2023-02-23T00:31:51.185Z,98871.91
2023-02-23T00:34:21.262Z,98874.16
2023-02-23T00:36:56.672Z,98880.44
2023-02-23T00:39:29.316Z,98875.41
2023-02-23T00:42:02.842Z,98875.59
2023-02-23T00:44:32.311Z,98873.78
2023-02-23T00:47:01.366Z,98875.50
2023-02-23T00:49:29.119Z,98881.53
2023-02-23T00:51:57.005Z,98876.94
2023-02-23T00:54:25.456Z,98884.66
2023-02-23T00:56:53.057Z,98883.47
2023-02-23T00:59:20.698Z,98888.31
2023-02-23T01:01:48.493Z,98888.75
2023-02-23T01:04:16.773Z,98892.59
2023-02-23T01:06:46.273Z,98891.47
2023-02-23T01:09:27.777Z,98888.34
2023-02-23T01:11:57.133Z,98882.47
2023-02-23T01:14:24.987Z,98891.34
2023-02-23T01:16:52.565Z,98883.13
2023-02-23T01:19:20.563Z,98879.72
2023-02-23T01:21:49.962Z,98890.00
2023-02-23T01:24:18.404Z,98887.16
2023-02-23T01:26:45.954Z,98897.09
2023-02-23T01:29:17.643Z,98881.91
2023-02-23T01:31:47.942Z,98885.72
2023-02-23T01:34:19.875Z,98887.44
2023-02-23T01:36:47.514Z,98884.97
2023-02-23T01:39:18.339Z,98879.16
2023-02-23T01:41:46.446Z,98885.22
2023-02-23T01:44:15.559Z,98887.38
2023-02-23T01:46:45.450Z,98881.72
2023-02-23T01:49:20.125Z,98877.81
2023-02-23T01:51:50.109Z,98871.72
2023-02-23T01:54:23.473Z,98886.56
2023-02-23T01:56:58.473Z,98880.13
2023-02-23T01:59:35.488Z,98882.25
2023-02-23T02:02:06.458Z,98882.94
2023-02-23T02:04:44.582Z,98879.59
2023-02-23T02:07:17.714Z,98877.44
2023-02-23T02:10:11.113Z,98875.72
2023-02-23T02:12:39.249Z,98876.91
2023-02-23T02:15:16.941Z,98874.97
2023-02-23T02:17:51.446Z,98878.16
2023-02-23T02:20:33.910Z,98878.47
2023-02-23T02:23:39.229Z,98878.72
2023-02-23T02:26:37.970Z,98876.50
2023-02-23T02:29:36.515Z,98868.78
2023-02-23T02:32:13.005Z,98874.06
2023-02-23T02:34:57.527Z,98873.81
2023-02-23T02:37:43.996Z,98880.53
2023-02-23T02:40:36.903Z,98879.75
2023-02-23T02:43:46.956Z,98875.72
2023-02-23T02:46:51.926Z,98874.28
2023-02-23T02:49:29.962Z,98882.59
2023-02-23T02:52:21.315Z,98881.81
2023-02-23T02:54:53.595Z,98883.44
2023-02-23T02:57:25.198Z,98887.34
2023-02-23T03:00:12.462Z,98888.53
2023-02-23T03:03:01.117Z,98888.06
2023-02-23T03:06:04.078Z,98887.13
2023-02-23T03:08:59.475Z,98887.56
2023-02-23T03:11:55.352Z,98887.28
2023-02-23T03:14:41.284Z,98885.72
2023-02-23T03:17:42.785Z,98883.88
2023-02-23T03:20:37.818Z,98895.16
2023-02-23T03:23:51.905Z,98891.22
2023-02-23T03:26:59.014Z,98888.31
2023-02-23T03:29:57.387Z,98891.75
2023-02-23T03:32:59.124Z,98899.25
2023-02-23T03:35:51.462Z,98903.19
2023-02-23T03:38:55.708Z,98889.84
2023-02-23T03:41:44.993Z,98896.06
2023-02-23T03:44:38.119Z,98898.47
2023-02-23T03:47:26.243Z,98893.41
2023-02-23T03:50:15.078Z,98892.66
2023-02-23T03:53:09.233Z,98890.69
2023-02-23T03:55:59.258Z,98896.16
2023-02-23T03:59:05.563Z,98898.31
2023-02-23T04:01:54.885Z,98891.84
2023-02-23T04:04:43.171Z,98893.72
2023-02-23T04:07:35.153Z,98899.09
2023-02-23T04:10:21.866Z,98901.22
2023-02-23T04:13:14.990Z,98893.47
2023-02-23T04:15:54.015Z,98892.94
2023-02-23T04:18:34.146Z,98894.78
2023-02-23T04:21:02.679Z,98885.75
2023-02-23T04:23:30.550Z,98891.56
2023-02-23T04:25:58.029Z,98888.88
2023-02-23T04:28:27.313Z,98894.19
2023-02-23T04:30:54.976Z,98888.06
2023-02-23T04:33:23.455Z,98899.13
2023-02-23T04:35:53.997Z,98888.63
2023-02-23T04:38:22.742Z,98896.69
2023-02-23T04:40:50.917Z,98900.97
2023-02-23T04:43:18.549Z,98898.19
2023-02-23T04:45:46.385Z,98893.88
2023-02-23T04:48:14.274Z,98903.06
2023-02-23T04:50:42.408Z,98903.44
2023-02-23T04:53:10.250Z,98904.97
2023-02-23T04:55:38.028Z,98899.34
2023-02-23T04:58:05.527Z,98894.25
2023-02-23T05:00:34.139Z,98898.16
2023-02-23T05:03:01.726Z,98903.38
2023-02-23T05:05:29.317Z,98899.13
2023-02-23T05:07:56.992Z,98910.34
2023-02-23T05:10:24.819Z,98902.06
2023-02-23T05:12:52.498Z,98903.03
2023-02-23T05:15:20.008Z,98901.59
2023-02-23T05:17:48.170Z,98907.22
2023-02-23T05:20:16.094Z,98901.53
2023-02-23T05:22:43.934Z,98905.66
2023-02-23T05:25:11.982Z,98915.03
2023-02-23T05:27:40.464Z,98912.75
2023-02-23T05:30:10.061Z,98906.41
2023-02-23T05:32:38.116Z,98909.09
2023-02-23T05:35:06.067Z,98916.53
2023-02-23T05:37:34.514Z,98911.53
2023-02-23T05:40:05.674Z,98911.22
2023-02-23T05:42:35.770Z,98908.28
2023-02-23T05:45:05.020Z,98908.78
2023-02-23T05:47:33.097Z,98913.06
2023-02-23T05:50:01.415Z,98914.38
2023-02-23T05:52:28.996Z,98922.50
2023-02-23T05:54:56.762Z,98922.03
2023-02-23T05:57:24.343Z,98925.22
2023-02-23T05:59:52.161Z,98923.16
2023-02-23T06:02:20.871Z,98929.81
2023-02-23T06:04:48.589Z,98927.44
2023-02-23T06:07:16.192Z,98925.25
2023-02-23T06:09:44.731Z,98936.75
2023-02-23T06:12:12.330Z,98931.47
2023-02-23T06:14:39.950Z,98943.81
2023-02-23T06:17:07.858Z,98947.97
2023-02-23T06:19:35.438Z,98948.47
2023-02-23T06:22:03.176Z,98951.72
2023-02-23T06:24:30.749Z,98950.06
2023-02-23T06:26:58.353Z,98955.47
2023-02-23T06:29:25.991Z,98969.16
2023-02-23T06:31:53.754Z,98963.22
2023-02-23T06:34:21.778Z,98966.38
2023-02-23T06:36:50.524Z,98970.69
2023-02-23T06:39:18.057Z,98976.69
2023-02-23T06:41:45.698Z,98975.66
2023-02-23T06:44:13.521Z,98986.53
2023-02-23T06:46:41.192Z,98976.63
2023-02-23T06:49:12.177Z,98978.91
2023-02-23T06:51:39.771Z,98974.63
2023-02-23T06:54:07.252Z,98986.44
2023-02-23T06:56:34.755Z,98984.47
2023-02-23T06:59:02.329Z,98989.19
2023-02-23T07:01:30.188Z,98983.72
2023-02-23T07:03:57.922Z,98989.19
2023-02-23T07:06:25.598Z,98985.19
2023-02-23T07:08:53.150Z,98992.59
2023-02-23T07:11:21.181Z,98991.69
2023-02-23T07:13:49.125Z,98993.78
2023-02-23T07:16:16.801Z,98993.97
2023-02-23T07:18:44.322Z,98989.41
2023-02-23T07:21:11.803Z,98989.69
2023-02-23T07:23:39.263Z,98993.34
2023-02-23T07:26:06.766Z,98993.34
2023-02-23T07:28:34.260Z,98998.13
2023-02-23T07:31:01.920Z,98996.19
2023-02-23T07:33:29.539Z,99001.09
2023-02-23T07:35:57.120Z,99004.63
2023-02-23T07:38:24.644Z,99000.22
2023-02-23T07:40:52.912Z,99007.97
2023-02-23T07:43:24.272Z,98995.50
2023-02-23T07:45:52.074Z,99007.00
2023-02-23T07:48:20.713Z,99008.41
2023-02-23T07:50:48.763Z,98999.91
2023-02-23T07:53:16.421Z,99012.41
2023-02-23T07:55:44.030Z,99001.22
2023-02-23T07:58:13.325Z,99003.47
2023-02-23T08:00:40.923Z,98999.47
2023-02-23T08:03:08.586Z,99002.44
2023-02-23T08:05:36.762Z,98993.69
2023-02-23T08:08:04.455Z,98989.16
2023-02-23T08:10:32.598Z,98990.69
2023-02-23T08:13:00.520Z,99006.88
2023-02-23T08:15:28.142Z,99002.44
2023-02-23T08:17:55.762Z,99004.59
2023-02-23T08:20:24.035Z,99007.47
2023-02-23T08:23:02.749Z,99013.81
2023-02-23T08:25:30.670Z,99017.09
2023-02-23T08:27:59.665Z,99014.09
2023-02-23T08:30:27.461Z,99010.81
2023-02-23T08:32:55.547Z,99015.34
